Miami, FL

4:07 PM EST on February 14, 2016 (GMT -0500)
Miami International | | Change Station
CLOSE
Current Station
Airport
Location: Miami,
Elevation: 13 ft
Nearby Weather Stations

Elev 13 ft 25.79 °N, 80.32 °W | Updated 14 minutes ago

Mostly Cloudy
Mostly Cloudy
73 °F
Feels Like 73 °F
N
13
Wind Variable Wind from ENE
Gusts 20 mph

Today
High -- | Low -- °F
--% Chance of Precip.
Yesterday
High -- | Low -- °F
Precip. -- in
Pressure 30.16 in
Visibility 10.0 miles
Clouds Mostly Cloudy 4700 ft
Mostly Cloudy 30000 ft
Dew Point 52 °F
Humidity 48%
Rainfall 0.00 in
Snow Depth Not available.
6:57 AM 6:13 PM
Waxing Crescent, 45% visible
METAR KMIA 142053Z 07011G17KT 10SM BKN047 BKN300 23/11 A3016 RMK AO2 SLP213 T02280111 56017
Pressure 30.16 in
Visibility 10.0 miles
Clouds Mostly Cloudy 4700 ft
Mostly Cloudy 30000 ft
Dew Point 52 °F
Humidity 48%
Rainfall 0.00 in
Snow Depth Not available.
6:57 AM 6:13 PM
Waxing Crescent, 45% visible
METAR KMIA 142053Z 07011G17KT 10SM BKN047 BKN300 23/11 A3016 RMK AO2 SLP213 T02280111 56017

10-Day Weather Forecast

Almanac

Astronomy

Feb. 14, 2016 Rise Set
Actual Time
Civil Twilight
Nautical Twilight
Astronomical Twilight
Moon
Length of Visible Light
Length of Day
Tomorrow will be .
, % of the Moon is Illuminated

Today's Extremes

State Highs State Lows

Community

WunderPhotos

Upload Photos

1,892,885 photos uploaded!

WunderBlog® & News

Nearby

Air Quality

  Air Quality AQ Index Pollutant
Not available.

Snow Depth

Station Depth Elevation

Earthquake Activity

City Distance Mag. Time & Date
Minimum magnitude displayed is 2.5.

Coastal Water Temperatures

Place Temperature

Stations

Nearby Weather Stations

Station Location Temp. Windchill Dew Point Humidity Wind Precip. Elev Updated Type
                   

Watches & Warnings

There are currently no watches in effect.